createdAt,value
2023-05-10T00:00:25.751Z,1.41
2023-05-10T00:01:25.778Z,1.45
2023-05-10T00:02:25.860Z,1.44
2023-05-10T00:03:25.930Z,1.40
2023-05-10T00:04:25.757Z,1.46
2023-05-10T00:05:25.759Z,1.42
2023-05-10T00:06:25.759Z,1.40
2023-05-10T00:07:25.764Z,1.42
2023-05-10T00:08:25.790Z,1.43
2023-05-10T00:09:25.762Z,1.41
2023-05-10T00:10:25.743Z,1.40
2023-05-10T00:11:25.743Z,1.41
2023-05-10T00:12:25.731Z,1.41
2023-05-10T00:13:25.852Z,1.41
2023-05-10T00:14:25.696Z,1.42
2023-05-10T00:15:25.705Z,1.39
2023-05-10T00:16:25.766Z,1.40
2023-05-10T00:17:25.701Z,1.41
2023-05-10T00:18:25.676Z,1.40
2023-05-10T00:19:25.671Z,1.41
2023-05-10T00:20:25.661Z,1.41
2023-05-10T00:21:25.640Z,1.37
2023-05-10T00:22:25.623Z,1.41
2023-05-10T00:23:25.618Z,1.40
2023-05-10T00:24:25.611Z,1.41
2023-05-10T00:25:25.623Z,1.43
2023-05-10T00:26:25.615Z,1.38
2023-05-10T00:27:25.600Z,1.39
2023-05-10T00:28:25.613Z,1.38
2023-05-10T00:29:25.624Z,1.36
2023-05-10T00:30:25.593Z,1.41
2023-05-10T00:31:25.616Z,1.40
2023-05-10T00:32:25.644Z,1.37
2023-05-10T00:33:25.633Z,1.39
2023-05-10T00:34:25.633Z,1.41
2023-05-10T00:35:25.625Z,1.39
2023-05-10T00:36:25.613Z,1.38
2023-05-10T00:37:25.621Z,1.34
2023-05-10T00:38:25.639Z,1.38
2023-05-10T00:39:25.746Z,1.42
2023-05-10T00:40:25.640Z,1.38
2023-05-10T00:41:25.644Z,1.34
2023-05-10T00:42:25.654Z,1.37
2023-05-10T00:43:25.665Z,1.38
2023-05-10T00:44:25.661Z,1.37
2023-05-10T00:45:25.679Z,1.39
2023-05-10T00:46:25.761Z,1.38
2023-05-10T00:47:25.746Z,1.36
2023-05-10T00:48:25.710Z,1.36
2023-05-10T00:49:25.712Z,1.37
2023-05-10T00:50:25.737Z,1.36
2023-05-10T00:51:25.765Z,1.35
2023-05-10T00:52:25.787Z,1.34
2023-05-10T00:53:25.790Z,1.38
2023-05-10T00:54:25.778Z,1.39
2023-05-10T00:55:25.771Z,1.37
2023-05-10T00:56:25.776Z,1.35
2023-05-10T00:57:25.778Z,1.36
2023-05-10T00:58:25.785Z,1.37
2023-05-10T00:59:25.790Z,1.34
2023-05-10T01:00:25.788Z,1.33
2023-05-10T01:01:25.802Z,1.37
2023-05-10T01:02:25.862Z,1.36
2023-05-10T01:03:25.878Z,1.34
2023-05-10T01:04:25.866Z,1.37
2023-05-10T01:05:25.913Z,1.35
2023-05-10T01:06:25.921Z,1.33
2023-05-10T01:07:25.899Z,1.35
2023-05-10T01:08:25.920Z,1.32
2023-05-10T01:09:25.924Z,1.32
2023-05-10T01:10:25.957Z,1.32
2023-05-10T01:11:25.966Z,1.35
2023-05-10T01:12:26.066Z,1.36
2023-05-10T01:13:26.167Z,1.32
2023-05-10T01:14:26.024Z,1.34
2023-05-10T01:15:26.023Z,1.34
2023-05-10T01:16:26.136Z,1.33
2023-05-10T01:17:26.146Z,1.31
2023-05-10T01:18:26.075Z,1.32
2023-05-10T01:19:26.082Z,1.36
2023-05-10T01:20:26.081Z,1.32
2023-05-10T01:21:26.081Z,1.30
2023-05-10T01:22:26.091Z,1.31
2023-05-10T01:23:26.146Z,1.32
2023-05-10T01:24:26.086Z,1.33
2023-05-10T01:25:26.078Z,1.32
2023-05-10T01:26:26.089Z,1.31
2023-05-10T01:27:26.089Z,1.33
2023-05-10T01:28:26.129Z,1.30
2023-05-10T01:29:26.118Z,1.32
2023-05-10T01:30:26.327Z,1.31
2023-05-10T01:31:26.132Z,1.32
2023-05-10T01:32:26.159Z,1.33
2023-05-10T01:33:26.117Z,1.33
2023-05-10T01:34:26.101Z,1.30
2023-05-10T01:35:26.130Z,1.32
2023-05-10T01:36:26.114Z,1.31
2023-05-10T01:37:26.119Z,1.30
2023-05-10T01:38:26.121Z,1.29
2023-05-10T01:39:26.116Z,1.30
2023-05-10T01:40:26.162Z,1.30
2023-05-10T01:41:26.197Z,1.32
2023-05-10T01:42:26.182Z,1.31
2023-05-10T01:43:26.184Z,1.31
2023-05-10T01:44:26.180Z,1.33
2023-05-10T01:45:26.191Z,1.32
2023-05-10T01:46:26.208Z,1.32
2023-05-10T01:47:26.239Z,1.29
2023-05-10T01:48:26.181Z,1.30
2023-05-10T01:49:26.189Z,1.28
2023-05-10T01:50:26.187Z,1.29
2023-05-10T01:51:26.227Z,1.26
2023-05-10T01:52:26.211Z,1.28
2023-05-10T01:53:26.226Z,1.32
2023-05-10T01:54:26.221Z,1.30
2023-05-10T01:55:26.228Z,1.29
2023-05-10T01:56:26.230Z,1.28
2023-05-10T01:57:26.257Z,1.28
2023-05-10T01:58:26.302Z,1.30
2023-05-10T01:59:26.233Z,1.30
2023-05-10T02:00:26.241Z,1.27
2023-05-10T02:01:26.231Z,1.27
2023-05-10T02:02:26.294Z,1.30
2023-05-10T02:03:26.289Z,1.30
2023-05-10T02:04:26.233Z,1.28
2023-05-10T02:05:26.219Z,1.30
2023-05-10T02:06:26.244Z,1.29
2023-05-10T02:07:26.220Z,1.24
2023-05-10T02:08:26.217Z,1.27
2023-05-10T02:09:26.224Z,1.27
2023-05-10T02:10:26.212Z,1.26
2023-05-10T02:11:26.213Z,1.28
2023-05-10T02:12:26.258Z,1.28
2023-05-10T02:13:26.382Z,1.26
2023-05-10T02:14:26.264Z,1.27
2023-05-10T02:15:26.246Z,1.27
2023-05-10T02:16:26.288Z,1.26
2023-05-10T02:17:26.326Z,1.24
2023-05-10T02:18:26.307Z,1.29
2023-05-10T02:19:26.308Z,1.27
2023-05-10T02:20:26.317Z,1.24
2023-05-10T02:21:26.324Z,1.25
2023-05-10T02:22:26.329Z,1.25
2023-05-10T02:23:26.307Z,1.26
2023-05-10T02:24:26.314Z,1.27
2023-05-10T02:25:26.304Z,1.23
2023-05-10T02:26:26.285Z,1.26
2023-05-10T02:27:26.315Z,1.25
2023-05-10T02:28:26.325Z,1.26
2023-05-10T02:29:26.314Z,1.23
2023-05-10T02:30:26.304Z,1.25
2023-05-10T02:31:26.332Z,1.25
2023-05-10T02:32:26.327Z,1.24
2023-05-10T02:33:26.312Z,1.24
2023-05-10T02:34:26.327Z,1.25
2023-05-10T02:35:26.328Z,1.26
2023-05-10T02:36:26.339Z,1.24
2023-05-10T02:37:26.347Z,1.21
2023-05-10T02:38:26.351Z,1.25
2023-05-10T02:39:26.356Z,1.22
2023-05-10T02:40:28.673Z,1.24
2023-05-10T02:41:26.489Z,1.24
2023-05-10T02:42:26.501Z,1.23
2023-05-10T02:43:26.521Z,1.24
2023-05-10T02:44:26.509Z,1.20
2023-05-10T02:45:26.499Z,1.22
2023-05-10T02:46:26.527Z,1.24
2023-05-10T02:47:26.502Z,1.23
2023-05-10T02:48:26.562Z,1.23
2023-05-10T02:49:26.520Z,1.21
2023-05-10T02:50:26.527Z,1.23
2023-05-10T02:51:26.535Z,1.21
2023-05-10T02:52:26.525Z,1.22
2023-05-10T02:53:26.520Z,1.23
2023-05-10T02:54:26.519Z,1.19
2023-05-10T02:55:26.540Z,1.23
2023-05-10T02:56:26.536Z,1.20
2023-05-10T02:57:26.569Z,1.22
2023-05-10T02:58:26.541Z,1.20
2023-05-10T02:59:26.539Z,1.23
2023-05-10T03:00:26.533Z,1.20
2023-05-10T03:01:26.577Z,1.21
2023-05-10T03:02:26.574Z,1.21
2023-05-10T03:03:26.552Z,1.21
2023-05-10T03:04:26.600Z,1.19
2023-05-10T03:05:26.570Z,1.20
2023-05-10T03:06:26.587Z,1.20
2023-05-10T03:07:26.610Z,1.17
2023-05-10T03:08:26.590Z,1.21
2023-05-10T03:09:26.634Z,1.20
2023-05-10T03:10:26.673Z,1.19
2023-05-10T03:11:26.635Z,1.21
2023-05-10T03:12:26.656Z,1.19
2023-05-10T03:13:26.906Z,1.18
2023-05-10T03:14:26.693Z,1.20
2023-05-10T03:15:26.688Z,1.17
2023-05-10T03:16:26.808Z,1.18
2023-05-10T03:17:26.773Z,1.17
2023-05-10T03:18:26.703Z,1.18
2023-05-10T03:19:26.807Z,1.18
2023-05-10T03:20:26.733Z,1.21
2023-05-10T03:21:26.727Z,1.18
2023-05-10T03:22:26.735Z,1.19
2023-05-10T03:23:26.735Z,1.17
2023-05-10T03:24:26.766Z,1.19
2023-05-10T03:25:26.748Z,1.20
2023-05-10T03:26:26.755Z,1.19
2023-05-10T03:27:26.760Z,1.14
2023-05-10T03:28:26.754Z,1.17
2023-05-10T03:29:26.769Z,1.17
2023-05-10T03:30:26.748Z,1.13
2023-05-10T03:31:26.769Z,1.19
2023-05-10T03:32:26.783Z,1.19
2023-05-10T03:33:27.332Z,1.18
2023-05-10T03:34:26.744Z,1.17
2023-05-10T03:35:26.740Z,1.19
2023-05-10T03:36:26.728Z,1.18
2023-05-10T03:37:26.736Z,1.17
2023-05-10T03:38:27.813Z,1.18
2023-05-10T03:39:26.714Z,1.20
2023-05-10T03:40:26.694Z,1.20
2023-05-10T03:41:26.686Z,1.18
2023-05-10T03:42:26.685Z,1.17
2023-05-10T03:43:26.663Z,1.16
2023-05-10T03:44:26.662Z,1.17
2023-05-10T03:45:26.646Z,1.16
2023-05-10T03:46:26.674Z,1.17
2023-05-10T03:47:26.698Z,1.18
2023-05-10T03:48:26.610Z,1.16
2023-05-10T03:49:26.606Z,1.17
2023-05-10T03:50:26.577Z,1.18
2023-05-10T03:51:26.590Z,1.14
2023-05-10T03:52:26.590Z,1.17
2023-05-10T03:53:26.532Z,1.18
2023-05-10T03:54:26.520Z,1.15
2023-05-10T03:55:26.507Z,1.17
2023-05-10T03:56:26.501Z,1.14
2023-05-10T03:57:26.514Z,1.18
2023-05-10T03:58:26.481Z,1.16
2023-05-10T03:59:26.460Z,1.17
2023-05-10T04:00:26.447Z,1.17
2023-05-10T04:01:26.459Z,1.17
2023-05-10T04:02:26.532Z,1.16
2023-05-10T04:03:26.479Z,1.15
2023-05-10T04:04:26.402Z,1.18
2023-05-10T04:05:26.390Z,1.17
2023-05-10T04:06:26.429Z,1.17
2023-05-10T04:07:26.357Z,1.14
2023-05-10T04:08:26.343Z,1.15
2023-05-10T04:09:26.336Z,1.17
2023-05-10T04:10:26.328Z,1.17
2023-05-10T04:11:26.306Z,1.16
2023-05-10T04:12:26.282Z,1.15
2023-05-10T04:13:26.299Z,1.16
2023-05-10T04:14:26.256Z,1.17
2023-05-10T04:15:26.228Z,1.17
2023-05-10T04:16:26.244Z,1.15
2023-05-10T04:17:26.231Z,1.17
2023-05-10T04:18:26.252Z,1.17
2023-05-10T04:19:26.185Z,1.17
2023-05-10T04:20:26.173Z,1.16
2023-05-10T04:21:26.173Z,1.17
2023-05-10T04:22:26.161Z,1.14
2023-05-10T04:23:26.123Z,1.15
2023-05-10T04:24:26.112Z,1.17
2023-05-10T04:25:26.099Z,1.16
2023-05-10T04:26:26.077Z,1.17
2023-05-10T04:27:26.068Z,1.16
2023-05-10T04:28:26.055Z,1.17
2023-05-10T04:29:26.052Z,1.17
2023-05-10T04:30:26.034Z,1.14
2023-05-10T04:31:26.071Z,1.16
2023-05-10T04:32:26.038Z,1.16
2023-05-10T04:33:25.995Z,1.13
2023-05-10T04:34:25.984Z,1.14
2023-05-10T04:35:25.970Z,1.15
2023-05-10T04:36:25.962Z,1.16
2023-05-10T04:37:25.938Z,1.17
2023-05-10T04:38:25.930Z,1.15
2023-05-10T04:39:25.921Z,1.15
2023-05-10T04:40:25.940Z,1.16
2023-05-10T04:41:25.899Z,1.13
2023-05-10T04:42:25.888Z,1.14
2023-05-10T04:43:25.873Z,1.16
2023-05-10T04:44:25.871Z,1.17
2023-05-10T04:45:25.855Z,1.13
2023-05-10T04:46:25.933Z,1.15
2023-05-10T04:47:25.894Z,1.14
2023-05-10T04:48:25.828Z,1.14
2023-05-10T04:49:25.815Z,1.15
2023-05-10T04:50:25.795Z,1.16
2023-05-10T04:51:25.784Z,1.16
2023-05-10T04:52:25.777Z,1.15
2023-05-10T04:53:25.794Z,1.15
2023-05-10T04:54:25.772Z,1.15
2023-05-10T04:55:25.766Z,1.14
2023-05-10T04:56:25.735Z,1.14
2023-05-10T04:57:25.754Z,1.15
2023-05-10T04:58:25.730Z,1.15
2023-05-10T04:59:25.718Z,1.12
2023-05-10T05:00:25.703Z,1.15
2023-05-10T05:01:25.746Z,1.12
2023-05-10T05:02:25.766Z,1.14
2023-05-10T05:03:25.846Z,1.14
2023-05-10T05:04:25.665Z,1.14
2023-05-10T05:05:25.674Z,1.13
2023-05-10T05:06:25.668Z,1.16
2023-05-10T05:07:25.665Z,1.14
2023-05-10T05:08:25.639Z,1.13
2023-05-10T05:09:25.622Z,1.13
2023-05-10T05:10:25.627Z,1.13
2023-05-10T05:11:25.614Z,1.16
2023-05-10T05:12:25.595Z,1.14
2023-05-10T05:13:25.709Z,1.13
2023-05-10T05:14:25.575Z,1.14
2023-05-10T05:15:25.566Z,1.14
2023-05-10T05:16:25.584Z,1.13
2023-05-10T05:17:25.581Z,1.15
2023-05-10T05:18:25.529Z,1.14
2023-05-10T05:19:25.523Z,1.15
2023-05-10T05:20:25.510Z,1.14
2023-05-10T05:21:25.494Z,1.15
2023-05-10T05:22:25.490Z,1.20
2023-05-10T05:23:25.477Z,1.21
2023-05-10T05:24:25.472Z,1.27
2023-05-10T05:25:25.465Z,1.33
2023-05-10T05:26:25.451Z,1.31
2023-05-10T05:27:25.437Z,1.46
2023-05-10T05:28:25.453Z,1.52
2023-05-10T05:29:25.420Z,1.59
2023-05-10T05:30:25.428Z,1.70
2023-05-10T05:31:25.388Z,1.68
2023-05-10T05:32:25.981Z,1.74
2023-05-10T05:33:25.377Z,1.78
2023-05-10T05:34:25.402Z,1.78
2023-05-10T05:35:25.353Z,1.89
2023-05-10T05:36:25.893Z,1.85
2023-05-10T05:37:25.312Z,1.85
2023-05-10T05:38:25.311Z,1.91
2023-05-10T05:39:25.303Z,1.89
2023-05-10T05:40:25.283Z,1.88
2023-05-10T05:41:25.276Z,1.87
2023-05-10T05:42:25.315Z,1.90
2023-05-10T05:43:25.280Z,1.93
2023-05-10T05:44:25.277Z,1.93
2023-05-10T05:45:25.254Z,1.92
2023-05-10T05:46:25.937Z,1.97
2023-05-10T05:47:25.283Z,1.97
2023-05-10T05:48:25.226Z,2.00
2023-05-10T05:49:25.222Z,1.97
2023-05-10T05:50:25.221Z,2.02
2023-05-10T05:51:25.214Z,2.02
2023-05-10T05:52:25.212Z,2.05
2023-05-10T05:53:25.224Z,2.01
2023-05-10T05:54:25.202Z,2.00
2023-05-10T05:55:25.184Z,2.03
2023-05-10T05:56:25.213Z,2.06
2023-05-10T05:57:25.172Z,2.05
2023-05-10T05:58:25.189Z,2.11
2023-05-10T05:59:25.169Z,2.13
2023-05-10T06:00:25.173Z,2.10
2023-05-10T06:01:25.147Z,2.16
2023-05-10T06:02:25.293Z,2.16
2023-05-10T06:03:25.286Z,2.11
2023-05-10T06:04:25.190Z,2.15
2023-05-10T06:05:25.114Z,2.22
2023-05-10T06:06:25.108Z,2.19
2023-05-10T06:07:25.104Z,2.19
2023-05-10T06:08:25.090Z,2.21
2023-05-10T06:09:25.078Z,2.16
2023-05-10T06:10:25.059Z,2.21
2023-05-10T06:11:25.899Z,2.22
2023-05-10T06:12:25.937Z,2.20
2023-05-10T06:13:25.115Z,2.23
2023-05-10T06:14:25.018Z,2.25
2023-05-10T06:15:25.053Z,2.31
2023-05-10T06:16:25.022Z,2.22
2023-05-10T06:17:24.998Z,2.27
2023-05-10T06:18:24.976Z,2.28
2023-05-10T06:19:24.974Z,2.29
2023-05-10T06:20:24.957Z,2.31
2023-05-10T06:21:24.944Z,2.32
2023-05-10T06:22:24.939Z,2.37
2023-05-10T06:23:24.920Z,2.38
2023-05-10T06:24:24.917Z,2.54
2023-05-10T06:25:24.899Z,2.57
2023-05-10T06:26:24.913Z,2.79
2023-05-10T06:27:24.939Z,2.92
2023-05-10T06:28:24.996Z,3.18
2023-05-10T06:29:25.021Z,3.14
2023-05-10T06:30:25.065Z,3.28
2023-05-10T06:31:25.137Z,3.37
2023-05-10T06:32:25.160Z,3.60
2023-05-10T06:33:25.189Z,3.84
2023-05-10T06:34:25.236Z,3.95
2023-05-10T06:35:25.291Z,4.12
2023-05-10T06:36:25.333Z,4.47
2023-05-10T06:37:25.387Z,4.48
2023-05-10T06:38:25.910Z,4.86
2023-05-10T06:39:25.486Z,5.12
2023-05-10T06:40:25.501Z,5.11
2023-05-10T06:41:25.543Z,5.45
2023-05-10T06:42:25.571Z,5.68
2023-05-10T06:43:25.629Z,5.82
2023-05-10T06:44:25.644Z,6.00
2023-05-10T06:45:25.665Z,6.15
2023-05-10T06:46:25.746Z,6.40
2023-05-10T06:47:25.770Z,6.66
2023-05-10T06:48:25.783Z,7.17
2023-05-10T06:49:25.805Z,7.01
2023-05-10T06:50:25.934Z,7.19
2023-05-10T06:51:25.884Z,7.35
2023-05-10T06:52:25.909Z,7.57
2023-05-10T06:53:25.936Z,7.76
2023-05-10T06:54:25.972Z,7.91
2023-05-10T06:55:25.981Z,8.25
2023-05-10T06:56:26.010Z,8.70
2023-05-10T06:57:31.597Z,8.76
2023-05-10T06:58:27.032Z,8.77
2023-05-10T06:59:26.042Z,8.86
2023-05-10T07:00:26.061Z,9.00
2023-05-10T07:01:26.134Z,9.24
2023-05-10T07:02:25.993Z,9.73
2023-05-10T07:03:25.930Z,9.82
2023-05-10T07:04:26.223Z,10.19
2023-05-10T07:05:26.161Z,10.46
2023-05-10T07:06:33.321Z,10.78
2023-05-10T07:07:26.878Z,10.79
2023-05-10T07:08:25.851Z,10.83
2023-05-10T07:09:25.894Z,11.00
2023-05-10T07:10:25.832Z,11.08
2023-05-10T07:11:25.807Z,11.63
2023-05-10T07:12:25.806Z,11.91
2023-05-10T07:13:25.853Z,12.09
2023-05-10T07:14:25.767Z,12.30
2023-05-10T07:15:25.848Z,13.00
2023-05-10T07:16:25.753Z,13.13
2023-05-10T07:17:25.763Z,12.71
2023-05-10T07:18:25.690Z,13.22
2023-05-10T07:19:25.630Z,13.41
2023-05-10T07:20:25.663Z,14.17
2023-05-10T07:21:25.727Z,13.66
2023-05-10T07:22:25.636Z,13.57
2023-05-10T07:23:25.657Z,13.64
2023-05-10T07:24:25.659Z,13.58
2023-05-10T07:25:25.684Z,13.77
2023-05-10T07:26:25.700Z,13.79
2023-05-10T07:27:25.731Z,13.85
2023-05-10T07:28:25.780Z,13.73
2023-05-10T07:29:25.776Z,13.34
2023-05-10T07:30:25.830Z,13.21
2023-05-10T07:31:25.842Z,12.98
2023-05-10T07:32:25.978Z,12.96
2023-05-10T07:33:25.878Z,13.04
2023-05-10T07:34:25.952Z,12.50
2023-05-10T07:35:25.951Z,12.64
2023-05-10T07:36:25.994Z,12.24
2023-05-10T07:37:26.013Z,12.14
2023-05-10T07:38:26.052Z,11.86
2023-05-10T07:39:28.047Z,12.09
2023-05-10T07:40:26.125Z,12.23
2023-05-10T07:41:26.160Z,12.14
2023-05-10T07:42:26.194Z,12.17
2023-05-10T07:43:26.243Z,12.14
2023-05-10T07:44:26.320Z,12.02
2023-05-10T07:45:26.302Z,12.17
2023-05-10T07:46:26.476Z,12.24
2023-05-10T07:47:26.414Z,11.89
2023-05-10T07:48:26.417Z,12.05
2023-05-10T07:49:26.472Z,11.86
2023-05-10T07:50:26.503Z,11.89
2023-05-10T07:51:26.534Z,11.76
2023-05-10T07:52:26.575Z,11.84
2023-05-10T07:53:26.619Z,11.89
2023-05-10T07:54:26.674Z,11.63
2023-05-10T07:55:26.703Z,11.70
2023-05-10T07:56:26.760Z,11.76
2023-05-10T07:57:26.802Z,11.58
2023-05-10T07:58:26.850Z,11.35
2023-05-10T07:59:26.871Z,11.65
2023-05-10T08:00:26.935Z,11.13
2023-05-10T08:01:26.966Z,11.14
2023-05-10T08:02:27.088Z,10.85
2023-05-10T08:03:27.191Z,11.07
2023-05-10T08:04:27.136Z,10.94
2023-05-10T08:05:27.136Z,11.08
2023-05-10T08:06:27.167Z,10.71
2023-05-10T08:07:27.255Z,10.74
2023-05-10T08:08:27.266Z,10.88
2023-05-10T08:09:27.309Z,11.18
2023-05-10T08:10:27.369Z,10.99
2023-05-10T08:11:27.404Z,10.90
2023-05-10T08:12:27.440Z,11.20
2023-05-10T08:13:27.492Z,6.82
2023-05-10T08:14:27.518Z,4.57
2023-05-10T08:15:27.545Z,2.75
2023-05-10T08:16:27.636Z,1.99
2023-05-10T08:17:27.554Z,1.49
2023-05-10T08:18:27.617Z,1.20
2023-05-10T08:19:27.641Z,0.88
2023-05-10T08:20:27.689Z,0.65
2023-05-10T08:21:27.729Z,0.50
2023-05-10T08:22:27.801Z,0.49
2023-05-10T08:23:27.844Z,0.47
2023-05-10T08:24:27.841Z,0.47
2023-05-10T08:25:27.850Z,0.47
2023-05-10T08:26:27.859Z,0.50
2023-05-10T08:27:27.876Z,0.56
2023-05-10T08:28:27.905Z,0.63
2023-05-10T08:29:28.516Z,0.66
2023-05-10T08:30:28.161Z,0.73
2023-05-10T08:31:28.216Z,0.83
2023-05-10T08:32:28.246Z,0.91
2023-05-10T08:33:28.270Z,1.15
2023-05-10T08:34:28.289Z,1.15
2023-05-10T08:35:28.295Z,1.20
2023-05-10T08:36:28.281Z,1.29
2023-05-10T08:37:28.265Z,1.36
2023-05-10T08:38:28.316Z,1.54
2023-05-10T08:39:30.750Z,1.60
2023-05-10T08:40:28.300Z,1.73
2023-05-10T08:41:28.286Z,1.84
2023-05-10T08:42:28.264Z,2.03
2023-05-10T08:43:28.288Z,2.09
2023-05-10T08:44:28.231Z,2.24
2023-05-10T08:45:28.210Z,2.34
2023-05-10T08:46:28.196Z,2.51
2023-05-10T08:47:29.083Z,2.72
2023-05-10T08:48:28.150Z,2.90
2023-05-10T08:49:28.133Z,3.01
2023-05-10T08:50:28.142Z,3.14
2023-05-10T08:51:28.095Z,3.18
2023-05-10T08:52:28.060Z,3.41
2023-05-10T08:53:28.043Z,3.52
2023-05-10T08:54:28.068Z,3.77
2023-05-10T08:55:28.152Z,3.86
2023-05-10T08:56:27.964Z,4.13
2023-05-10T08:57:27.947Z,4.33
2023-05-10T08:58:27.940Z,4.52
2023-05-10T08:59:27.906Z,4.78
2023-05-10T09:00:27.919Z,5.05
2023-05-10T09:01:27.914Z,5.08
2023-05-10T09:02:27.853Z,5.24
2023-05-10T09:03:27.811Z,5.51
2023-05-10T09:04:27.918Z,5.71
2023-05-10T09:05:27.823Z,6.07
2023-05-10T09:06:27.746Z,6.42
2023-05-10T09:07:27.712Z,6.41
2023-05-10T09:08:27.681Z,6.52
2023-05-10T09:09:27.661Z,6.69
2023-05-10T09:10:27.676Z,7.06
2023-05-10T09:11:27.600Z,7.32
2023-05-10T09:12:27.578Z,7.43
2023-05-10T09:13:27.541Z,7.58
2023-05-10T09:14:27.521Z,7.64
2023-05-10T09:15:27.491Z,7.58
2023-05-10T09:16:27.493Z,7.61
2023-05-10T09:17:27.507Z,6.49
2023-05-10T09:18:28.146Z,5.77
2023-05-10T09:19:27.380Z,4.71
2023-05-10T09:20:27.356Z,3.84
2023-05-10T09:21:27.320Z,3.83
2023-05-10T09:22:27.299Z,3.61
2023-05-10T09:23:27.280Z,3.99
2023-05-10T09:24:27.261Z,4.43
2023-05-10T09:25:27.252Z,4.70
2023-05-10T09:26:27.218Z,5.02
2023-05-10T09:27:27.200Z,5.49
2023-05-10T09:28:27.193Z,5.54
2023-05-10T09:29:27.149Z,5.72
2023-05-10T09:30:27.142Z,6.11
2023-05-10T09:31:27.285Z,6.24
2023-05-10T09:32:27.118Z,6.74
2023-05-10T09:33:27.059Z,7.09
2023-05-10T09:34:27.034Z,6.99
2023-05-10T09:35:29.481Z,7.43
2023-05-10T09:36:26.982Z,7.81
2023-05-10T09:37:26.952Z,7.79
2023-05-10T09:38:26.923Z,8.00
2023-05-10T09:39:26.899Z,8.19
2023-05-10T09:40:26.866Z,8.48
2023-05-10T09:41:26.827Z,8.77
2023-05-10T09:42:26.803Z,9.20
2023-05-10T09:43:27.819Z,9.24
2023-05-10T09:44:26.742Z,9.35
2023-05-10T09:45:26.701Z,9.51
2023-05-10T09:46:26.705Z,10.16
2023-05-10T09:47:26.665Z,11.41
2023-05-10T09:48:26.613Z,11.44
2023-05-10T09:49:26.584Z,11.65
2023-05-10T09:50:26.606Z,11.93
2023-05-10T09:51:26.521Z,12.21
2023-05-10T09:52:26.613Z,12.35
2023-05-10T09:53:26.575Z,13.37
2023-05-10T09:54:26.598Z,13.50
2023-05-10T09:55:26.624Z,14.62
2023-05-10T09:56:26.643Z,15.23
2023-05-10T09:57:26.668Z,14.85
2023-05-10T09:58:26.702Z,15.35
2023-05-10T09:59:26.671Z,15.61
2023-05-10T10:00:26.694Z,16.16
2023-05-10T10:01:26.733Z,17.19
2023-05-10T10:02:26.723Z,17.52
2023-05-10T10:03:28.890Z,19.27
2023-05-10T10:04:26.651Z,21.00
2023-05-10T10:05:26.578Z,20.18
2023-05-10T10:06:30.424Z,19.91
2023-05-10T10:07:26.491Z,19.97
2023-05-10T10:08:26.455Z,20.24
2023-05-10T10:09:26.399Z,20.85
2023-05-10T10:10:26.381Z,21.02
2023-05-10T10:11:26.324Z,21.51
2023-05-10T10:12:26.294Z,21.74
2023-05-10T10:13:26.275Z,20.74
2023-05-10T10:14:26.198Z,21.19
2023-05-10T10:15:26.174Z,20.65
2023-05-10T10:16:26.222Z,20.53
2023-05-10T10:17:26.138Z,21.03
2023-05-10T10:18:26.142Z,21.07
2023-05-10T10:19:26.064Z,21.36
2023-05-10T10:20:26.020Z,21.62
2023-05-10T10:21:26.004Z,20.83
2023-05-10T10:22:25.952Z,20.40
2023-05-10T10:23:25.934Z,20.66
2023-05-10T10:24:25.897Z,20.97
2023-05-10T10:25:25.870Z,20.76
2023-05-10T10:26:25.833Z,20.68
2023-05-10T10:27:25.849Z,20.74
2023-05-10T10:28:28.131Z,20.31
2023-05-10T10:29:25.992Z,20.87
2023-05-10T10:30:26.021Z,20.80
2023-05-10T10:31:26.080Z,20.50
2023-05-10T10:32:26.083Z,20.46
2023-05-10T10:33:28.906Z,20.45
2023-05-10T10:34:26.057Z,20.74
2023-05-10T10:35:26.023Z,20.60
2023-05-10T10:36:26.008Z,20.39
2023-05-10T10:37:25.981Z,20.36
2023-05-10T10:38:25.956Z,20.45
2023-05-10T10:39:25.937Z,20.16
2023-05-10T10:40:25.909Z,20.29
2023-05-10T10:41:25.907Z,19.66
2023-05-10T10:42:25.880Z,20.51
2023-05-10T10:43:25.833Z,20.36
2023-05-10T10:44:25.802Z,20.15
2023-05-10T10:45:25.785Z,20.26
2023-05-10T10:46:25.787Z,20.49
2023-05-10T10:47:25.923Z,20.02
2023-05-10T10:48:25.706Z,20.26
2023-05-10T10:49:25.688Z,19.88
2023-05-10T10:50:25.662Z,20.00
2023-05-10T10:51:25.619Z,19.91
2023-05-10T10:52:25.585Z,20.36
2023-05-10T10:53:25.596Z,19.76
2023-05-10T10:54:25.540Z,19.26
2023-05-10T10:55:25.518Z,19.10
2023-05-10T10:56:25.472Z,18.74
2023-05-10T10:57:25.488Z,18.96
2023-05-10T10:58:25.399Z,19.21
2023-05-10T10:59:25.383Z,19.03
2023-05-10T11:00:25.342Z,19.87
2023-05-10T11:01:25.337Z,19.48
2023-05-10T11:02:25.300Z,19.39
2023-05-10T11:03:25.243Z,19.05
2023-05-10T11:04:25.243Z,19.18
2023-05-10T11:05:25.186Z,14.17
2023-05-10T11:06:25.182Z,12.81
2023-05-10T11:07:25.140Z,11.21
2023-05-10T11:08:25.116Z,8.70
2023-05-10T11:09:25.080Z,7.55
2023-05-10T11:10:25.079Z,7.16
2023-05-10T11:11:25.033Z,5.66
2023-05-10T11:12:25.001Z,4.39
2023-05-10T11:13:24.987Z,3.64
2023-05-10T11:14:24.955Z,3.19
2023-05-10T11:15:24.932Z,2.92
2023-05-10T11:16:25.129Z,2.54
2023-05-10T11:17:24.928Z,2.05
2023-05-10T11:18:24.875Z,2.03
2023-05-10T11:19:24.828Z,1.99
2023-05-10T11:20:24.809Z,2.03
2023-05-10T11:21:24.796Z,1.99
2023-05-10T11:22:24.763Z,1.81
2023-05-10T11:23:24.755Z,1.75
2023-05-10T11:24:24.722Z,1.62
2023-05-10T11:25:24.702Z,1.42
2023-05-10T11:26:24.660Z,1.31
2023-05-10T11:27:24.630Z,1.24
2023-05-10T11:28:24.606Z,1.11
2023-05-10T11:29:24.577Z,1.06
2023-05-10T11:30:24.556Z,0.98
2023-05-10T11:31:24.609Z,0.97
2023-05-10T11:32:24.562Z,0.87
2023-05-10T11:33:24.497Z,0.80
2023-05-10T11:34:24.478Z,0.71
2023-05-10T11:35:24.465Z,0.71
2023-05-10T11:36:24.427Z,0.63
2023-05-10T11:37:24.401Z,0.55
2023-05-10T11:38:24.408Z,0.54
2023-05-10T11:39:24.443Z,0.50
2023-05-10T11:40:24.342Z,0.50
2023-05-10T11:41:24.318Z,0.52
2023-05-10T11:42:24.296Z,0.50
2023-05-10T11:43:24.288Z,0.50
2023-05-10T11:44:24.292Z,0.51
2023-05-10T11:45:24.308Z,0.50
2023-05-10T11:46:24.378Z,0.53
2023-05-10T11:47:24.517Z,0.56
2023-05-10T11:48:24.465Z,0.57
2023-05-10T11:49:24.505Z,0.55
2023-05-10T11:50:24.553Z,0.54
2023-05-10T11:51:24.597Z,0.53
2023-05-10T11:52:24.674Z,0.53
2023-05-10T11:53:25.894Z,0.54
2023-05-10T11:54:24.789Z,0.53
2023-05-10T11:55:24.749Z,0.53
2023-05-10T11:56:24.889Z,0.51
2023-05-10T11:57:24.826Z,0.52
2023-05-10T11:58:24.868Z,0.51
2023-05-10T11:59:24.909Z,0.53
2023-05-10T12:00:24.933Z,0.55
2023-05-10T12:01:24.984Z,0.53
2023-05-10T12:02:25.052Z,0.62
2023-05-10T12:03:25.150Z,0.67
2023-05-10T12:04:25.068Z,0.74
2023-05-10T12:05:25.062Z,0.81
2023-05-10T12:06:25.098Z,1.07
2023-05-10T12:07:25.097Z,1.23
2023-05-10T12:08:25.064Z,1.38
2023-05-10T12:09:39.759Z,1.49
2023-05-10T12:10:26.035Z,1.50
2023-05-10T12:11:25.001Z,1.54
2023-05-10T12:12:24.954Z,1.66
2023-05-10T12:13:24.938Z,1.88
2023-05-10T12:14:24.907Z,2.22
2023-05-10T12:15:24.884Z,2.43
2023-05-10T12:16:25.305Z,2.61
2023-05-10T12:17:24.833Z,2.75
2023-05-10T12:18:24.827Z,2.75
2023-05-10T12:19:25.028Z,2.87
2023-05-10T12:20:24.754Z,2.91
2023-05-10T12:21:24.750Z,3.35
2023-05-10T12:22:24.703Z,3.34
2023-05-10T12:23:24.680Z,3.47
2023-05-10T12:24:24.647Z,3.48
2023-05-10T12:25:24.617Z,3.65
2023-05-10T12:26:24.596Z,3.59
2023-05-10T12:27:24.567Z,3.75
2023-05-10T12:28:24.748Z,3.82
2023-05-10T12:29:24.521Z,3.90
2023-05-10T12:30:24.570Z,4.00
2023-05-10T12:31:24.655Z,4.20
2023-05-10T12:32:24.670Z,4.15
2023-05-10T12:33:24.689Z,4.02
2023-05-10T12:34:24.752Z,4.08
2023-05-10T12:35:24.835Z,4.11
2023-05-10T12:36:24.778Z,4.15
2023-05-10T12:37:24.820Z,4.07
2023-05-10T12:38:24.854Z,4.35
2023-05-10T12:39:24.905Z,4.76
2023-05-10T12:40:24.948Z,4.87
2023-05-10T12:41:24.988Z,5.18
2023-05-10T12:42:25.012Z,5.27
2023-05-10T12:43:25.071Z,5.19
2023-05-10T12:44:25.109Z,5.24
2023-05-10T12:45:25.160Z,5.41
2023-05-10T12:46:25.262Z,5.46
2023-05-10T12:47:25.208Z,5.58
2023-05-10T12:48:25.175Z,5.64
2023-05-10T12:49:25.164Z,5.59
2023-05-10T12:50:25.155Z,5.46
2023-05-10T12:51:25.203Z,5.29
2023-05-10T12:52:25.132Z,6.12
2023-05-10T12:53:25.100Z,5.63
2023-05-10T12:54:25.167Z,5.65
2023-05-10T12:55:25.089Z,5.87
2023-05-10T12:56:25.160Z,5.89
2023-05-10T12:57:25.186Z,6.18
2023-05-10T12:58:34.953Z,6.23
2023-05-10T12:59:26.064Z,6.25
2023-05-10T13:00:25.089Z,6.27
2023-05-10T13:01:25.070Z,6.35
2023-05-10T13:02:25.131Z,6.46
2023-05-10T13:03:24.975Z,6.51
2023-05-10T13:04:24.974Z,6.54
2023-05-10T13:05:24.949Z,6.59
2023-05-10T13:06:25.182Z,6.44
2023-05-10T13:07:24.937Z,6.45
2023-05-10T13:08:24.935Z,6.43
2023-05-10T13:09:24.886Z,6.39
2023-05-10T13:10:24.869Z,6.47
2023-05-10T13:11:24.849Z,6.39
2023-05-10T13:12:24.820Z,6.31
2023-05-10T13:13:24.881Z,6.23